Time;durP1;ratioP1;P1;durP2;ratioP2;P2;SDS_P1;SDS_P2;PMS_P1;PMS_P2;Temp;Humidity;BMP_temperature;BMP_pressure;BME280_temperature;BME280_humidity;BME280_pressure;Samples;Min_cycle;Max_cycle;Signal;HPM_P1;HPM_P2
2022/10/03 00:00:31;;;;;;;10.63;2.77;;;;;;;;;;5010205;28;20241;-76
2022/10/03 00:03:21;;;;;;;17.07;2.93;;;;;;;;;;4982889;28;20275;-77
2022/10/03 00:06:02;;;;;;;8.33;2.43;;;;;;;;;;5012213;28;20334;-76
2022/10/03 00:09:02;;;;;;;14.03;3.07;;;;;;;;;;5004053;28;20285;-76
2022/10/03 00:11:33;;;;;;;8.27;2.50;;;;;;;;;;4985485;28;20664;-76
2022/10/03 00:13:59;;;;;;;11.20;2.63;;;;;;;;;;4992129;28;20745;-75
2022/10/03 00:16:57;;;;;;;12.87;2.93;;;;;;;;;;4995047;28;20236;-76
2022/10/03 00:19:36;;;;;;;12.80;2.40;;;;;;;;;;4994151;28;20225;-75
2022/10/03 00:22:29;;;;;;;9.70;2.90;;;;;;;;;;4991472;28;20224;-75
2022/10/03 00:25:16;;;;;;;14.63;2.90;;;;;;;;;;4974802;28;20241;-76
2022/10/03 00:27:44;;;;;;;11.43;2.97;;;;;;;;;;5009225;28;20225;-76
2022/10/03 00:30:15;;;;;;;10.03;2.70;;;;;;;;;;4994183;28;20225;-76
2022/10/03 00:33:15;;;;;;;9.60;2.70;;;;;;;;;;5006726;28;20224;-75
2022/10/03 00:35:58;;;;;;;9.47;2.67;;;;;;;;;;4992624;28;20221;-76
2022/10/03 00:38:33;;;;;;;12.23;3.07;;;;;;;;;;4980699;28;20224;-76
2022/10/03 00:41:38;;;;;;;12.37;3.03;;;;;;;;;;4992183;28;20224;-75
2022/10/03 00:44:15;;;;;;;10.40;2.67;;;;;;;;;;5000463;28;20311;-76
2022/10/03 00:47:15;;;;;;;17.70;3.07;;;;;;;;;;5009027;28;20220;-75
2022/10/03 00:50:12;;;;;;;8.37;2.33;;;;;;;;;;4993788;28;20745;-76
2022/10/03 00:53:04;;;;;;;12.47;3.53;;;;;;;;;;4976607;28;20308;-76
2022/10/03 00:55:29;;;;;;;13.47;2.97;;;;;;;;;;4993588;28;20691;-75
2022/10/03 00:58:09;;;;;;;7.50;2.83;;;;;;;;;;5009132;28;20238;-76
2022/10/03 01:00:37;;;;;;;9.00;2.43;;;;;;;;;;5008127;28;20220;-76
2022/10/03 01:03:16;;;;;;;9.27;2.77;;;;;;;;;;4980858;28;20672;-76
2022/10/03 01:06:15;;;;;;;8.37;2.80;;;;;;;;;;5003966;28;20232;-76
2022/10/03 01:08:56;;;;;;;12.20;3.07;;;;;;;;;;5006618;28;20315;-76
2022/10/03 01:11:31;;;;;;;13.80;3.03;;;;;;;;;;5005968;28;20228;-76
2022/10/03 01:14:03;;;;;;;11.87;3.20;;;;;;;;;;5006859;28;20224;-76
2022/10/03 01:17:03;;;;;;;9.17;2.97;;;;;;;;;;4994254;28;20227;-76
2022/10/03 01:19:29;;;;;;;7.97;2.80;;;;;;;;;;5001901;28;20254;-76
2022/10/03 01:22:12;;;;;;;9.27;2.87;;;;;;;;;;5012381;28;20236;-76
2022/10/03 01:24:53;;;;;;;8.73;2.57;;;;;;;;;;5012016;28;20228;-75
2022/10/03 01:27:27;;;;;;;9.73;3.03;;;;;;;;;;4987032;28;20233;-75
2022/10/03 01:33:09;;;;;;;13.87;3.00;;;;;;;;;;4986425;28;20225;-75
2022/10/03 01:35:47;;;;;;;14.77;3.20;;;;;;;;;;4988519;28;20620;-75
2022/10/03 01:38:29;;;;;;;12.93;2.93;;;;;;;;;;4997059;28;20707;-76
2022/10/03 01:41:05;;;;;;;13.03;3.07;;;;;;;;;;4996990;28;20323;-76
2022/10/03 01:43:48;;;;;;;11.60;3.30;;;;;;;;;;4983369;28;20224;-75
2022/10/03 01:46:43;;;;;;;11.50;3.10;;;;;;;;;;4981011;28;20307;-76
2022/10/03 01:49:31;;;;;;;9.83;2.67;;;;;;;;;;4987656;28;20232;-75
2022/10/03 01:52:10;;;;;;;12.47;3.00;;;;;;;;;;4992859;28;20224;-75
2022/10/03 01:54:42;;;;;;;11.03;2.90;;;;;;;;;;4998236;28;20311;-75
2022/10/03 01:57:30;;;;;;;18.20;3.73;;;;;;;;;;4977563;28;20217;-75
2022/10/03 01:59:59;;;;;;;13.87;3.13;;;;;;;;;;4998798;28;20233;-75
2022/10/03 02:02:43;;;;;;;13.83;2.80;;;;;;;;;;5011282;28;20228;-76
2022/10/03 02:05:11;;;;;;;13.40;2.97;;;;;;;;;;4975328;28;20225;-77
2022/10/03 02:08:06;;;;;;;8.23;2.77;;;;;;;;;;4994438;28;20878;-75
2022/10/03 02:10:32;;;;;;;15.00;3.23;;;;;;;;;;4981214;28;20558;-76
2022/10/03 02:13:00;;;;;;;10.97;2.97;;;;;;;;;;5011095;28;20278;-75
2022/10/03 02:15:33;;;;;;;12.03;3.17;;;;;;;;;;4963567;28;20719;-75
2022/10/03 02:18:13;;;;;;;15.90;3.70;;;;;;;;;;4987718;28;20232;-75
2022/10/03 02:21:00;;;;;;;10.97;2.87;;;;;;;;;;4991241;28;20232;-75
2022/10/03 02:23:31;;;;;;;10.33;2.63;;;;;;;;;;5011612;28;20216;-75
2022/10/03 02:26:27;;;;;;;11.67;3.17;;;;;;;;;;5011935;28;20244;-75
2022/10/03 02:29:05;;;;;;;10.97;2.63;;;;;;;;;;4970524;28;20237;-75
2022/10/03 02:31:49;;;;;;;16.33;3.13;;;;;;;;;;4981157;28;20224;-75
2022/10/03 02:34:16;;;;;;;18.10;3.30;;;;;;;;;;5010804;28;20225;-75
2022/10/03 02:36:56;;;;;;;13.03;3.00;;;;;;;;;;4993518;28;20232;-75
2022/10/03 02:39:43;;;;;;;9.93;2.70;;;;;;;;;;5011280;28;20232;-75
2022/10/03 02:42:39;;;;;;;11.53;2.63;;;;;;;;;;4995211;28;20709;-75
2022/10/03 02:45:26;;;;;;;10.97;2.80;;;;;;;;;;5011335;28;20220;-75
2022/10/03 02:48:13;;;;;;;14.90;2.83;;;;;;;;;;4983835;28;20620;-76
2022/10/03 02:50:54;;;;;;;14.73;3.53;;;;;;;;;;4996945;28;20691;-75
2022/10/03 02:53:32;;;;;;;10.70;2.50;;;;;;;;;;5009397;28;20227;-75
2022/10/03 02:56:19;;;;;;;12.83;2.70;;;;;;;;;;4997882;28;20228;-75
2022/10/03 02:59:12;;;;;;;12.27;3.20;;;;;;;;;;5010370;28;20659;-75
2022/10/03 03:01:56;;;;;;;10.73;2.47;;;;;;;;;;5010416;28;20212;-75
2022/10/03 03:04:43;;;;;;;11.17;2.53;;;;;;;;;;5010555;28;20609;-75
2022/10/03 03:07:46;;;;;;;10.73;2.80;;;;;;;;;;5010173;28;20244;-75
2022/10/03 03:10:20;;;;;;;10.87;2.43;;;;;;;;;;4966159;28;20236;-75
2022/10/03 03:12:59;;;;;;;13.43;2.80;;;;;;;;;;5009929;28;20327;-75
2022/10/03 03:16:01;;;;;;;10.30;2.70;;;;;;;;;;4996111;28;20327;-74
2022/10/03 03:18:48;;;;;;;7.47;2.60;;;;;;;;;;5009409;28;20258;-74
2022/10/03 03:21:31;;;;;;;9.47;2.63;;;;;;;;;;4969998;28;20225;-74
2022/10/03 03:24:01;;;;;;;11.43;2.30;;;;;;;;;;4995993;28;20224;-76
2022/10/03 03:26:29;;;;;;;9.73;2.43;;;;;;;;;;4999152;28;20240;-76
2022/10/03 03:29:15;;;;;;;12.40;2.47;;;;;;;;;;5010360;28;20866;-75
2022/10/03 03:32:02;;;;;;;13.87;2.90;;;;;;;;;;4962196;28;20228;-75
2022/10/03 03:34:32;;;;;;;10.40;2.50;;;;;;;;;;4960551;28;20750;-75
2022/10/03 03:37:08;;;;;;;13.33;2.90;;;;;;;;;;5008334;28;20233;-75
2022/10/03 03:40:01;;;;;;;8.70;2.53;;;;;;;;;;4997240;28;20227;-76
2022/10/03 03:42:57;;;;;;;11.10;2.33;;;;;;;;;;4997204;28;20225;-75
2022/10/03 03:45:31;;;;;;;8.33;2.57;;;;;;;;;;4979616;28;20718;-75
2022/10/03 03:48:24;;;;;;;9.43;2.27;;;;;;;;;;5009698;28;20604;-75
2022/10/03 03:50:56;;;;;;;6.20;1.97;;;;;;;;;;5008471;28;20224;-75
2022/10/03 03:53:44;;;;;;;10.27;2.20;;;;;;;;;;4997029;28;20220;-76
2022/10/03 03:56:39;;;;;;;9.50;2.40;;;;;;;;;;4980940;28;20217;-75
2022/10/03 03:59:16;;;;;;;8.37;2.13;;;;;;;;;;4954260;28;20237;-75
2022/10/03 04:01:47;;;;;;;10.47;2.20;;;;;;;;;;5008489;28;20224;-75
2022/10/03 04:04:35;;;;;;;9.20;2.30;;;;;;;;;;4996576;28;20237;-76
2022/10/03 04:07:38;;;;;;;11.73;2.60;;;;;;;;;;5008241;28;20231;-75
2022/10/03 04:10:29;;;;;;;13.17;2.70;;;;;;;;;;4953312;28;20234;-74
2022/10/03 04:13:18;;;;;;;12.47;2.97;;;;;;;;;;4993841;28;20232;-75
2022/10/03 04:15:46;;;;;;;7.03;2.10;;;;;;;;;;4979092;28;20745;-75
2022/10/03 04:21:19;;;;;;;13.10;2.23;;;;;;;;;;5008576;28;20225;-76
2022/10/03 04:23:57;;;;;;;8.57;2.50;;;;;;;;;;4995370;28;20304;-75
2022/10/03 04:26:59;;;;;;;9.20;2.20;;;;;;;;;;4999085;28;20623;-76
2022/10/03 04:29:42;;;;;;;8.50;2.00;;;;;;;;;;4978261;28;20248;-75
2022/10/03 04:32:25;;;;;;;7.73;2.37;;;;;;;;;;5008725;28;20236;-75
2022/10/03 04:35:32;;;;;;;11.03;2.60;;;;;;;;;;4996588;28;20232;-75
2022/10/03 04:38:22;;;;;;;8.17;2.00;;;;;;;;;;4974565;28;20224;-75
2022/10/03 04:41:10;;;;;;;9.57;2.30;;;;;;;;;;5008233;28;20220;-75
2022/10/03 04:43:51;;;;;;;8.97;2.33;;;;;;;;;;5008451;28;20224;-75
2022/10/03 04:46:33;;;;;;;6.00;2.10;;;;;;;;;;4974805;28;20700;-75
2022/10/03 04:49:03;;;;;;;10.43;1.97;;;;;;;;;;4994398;28;20232;-75
2022/10/03 04:51:47;;;;;;;7.10;2.33;;;;;;;;;;4995240;28;20217;-75
2022/10/03 04:54:43;;;;;;;7.80;2.10;;;;;;;;;;5008117;28;20235;-75
2022/10/03 04:57:27;;;;;;;8.37;1.97;;;;;;;;;;4993474;28;20221;-75
2022/10/03 05:00:27;;;;;;;7.87;2.07;;;;;;;;;;4976187;28;20224;-74
2022/10/03 05:03:16;;;;;;;7.47;2.23;;;;;;;;;;4982017;28;20233;-75
2022/10/03 05:05:54;;;;;;;5.40;1.70;;;;;;;;;;4992376;28;20761;-76
2022/10/03 05:08:30;;;;;;;5.37;1.87;;;;;;;;;;5002633;28;20614;-75
2022/10/03 05:11:11;;;;;;;13.30;2.43;;;;;;;;;;4974994;28;20229;-75
2022/10/03 05:13:46;;;;;;;8.43;2.40;;;;;;;;;;5007639;28;20217;-75
2022/10/03 05:16:18;;;;;;;8.63;2.20;;;;;;;;;;4976274;28;20232;-75
2022/10/03 05:19:28;;;;;;;6.97;1.90;;;;;;;;;;4979040;28;20216;-75
2022/10/03 05:21:58;;;;;;;8.60;2.10;;;;;;;;;;4912707;29;20318;-76
2022/10/03 05:24:44;;;;;;;11.37;2.40;;;;;;;;;;4978857;28;20364;-75
2022/10/03 05:27:36;;;;;;;8.47;2.47;;;;;;;;;;5007734;28;20224;-75
2022/10/03 05:30:22;;;;;;;5.90;2.20;;;;;;;;;;4970367;28;20234;-75
2022/10/03 05:32:59;;;;;;;10.37;2.27;;;;;;;;;;5012139;28;20307;-75
2022/10/03 05:35:59;;;;;;;7.10;2.10;;;;;;;;;;4973510;28;20225;-75
2022/10/03 05:38:47;;;;;;;7.67;2.03;;;;;;;;;;4990384;28;20776;-76
2022/10/03 05:41:35;;;;;;;13.50;2.40;;;;;;;;;;5008166;28;20231;-73
2022/10/03 05:44:00;;;;;;;6.90;2.50;;;;;;;;;;5002441;28;20233;-75
2022/10/03 05:46:43;;;;;;;9.23;2.83;;;;;;;;;;4985665;28;20788;-75
2022/10/03 05:49:34;;;;;;;15.97;3.00;;;;;;;;;;4986356;28;20228;-75
2022/10/03 05:52:22;;;;;;;11.77;2.80;;;;;;;;;;4992535;28;20229;-75
2022/10/03 05:55:27;;;;;;;8.23;2.60;;;;;;;;;;4990477;28;20236;-75
2022/10/03 05:58:09;;;;;;;10.30;2.90;;;;;;;;;;4976141;28;20262;-76
2022/10/03 06:00:50;;;;;;;10.23;2.97;;;;;;;;;;4979204;28;20324;-76
2022/10/03 06:03:40;;;;;;;11.50;2.73;;;;;;;;;;4999369;28;20236;-76
2022/10/03 06:06:19;;;;;;;9.87;2.10;;;;;;;;;;4979600;28;20707;-75
2022/10/03 06:09:10;;;;;;;10.33;2.67;;;;;;;;;;4991895;28;20229;-76
2022/10/03 06:11:50;;;;;;;13.33;2.70;;;;;;;;;;5001835;28;20220;-76
2022/10/03 06:14:48;;;;;;;8.20;2.77;;;;;;;;;;4998632;28;20320;-75
2022/10/03 06:17:54;;;;;;;7.13;2.50;;;;;;;;;;4974807;28;20221;-73
2022/10/03 06:20:41;;;;;;;9.67;2.60;;;;;;;;;;4913977;29;20291;-75
2022/10/03 06:23:48;;;;;;;7.50;2.80;;;;;;;;;;4974849;28;20308;-74
2022/10/03 06:26:37;;;;;;;10.30;2.53;;;;;;;;;;4953007;28;20593;-75
2022/10/03 06:29:26;;;;;;;8.23;2.80;;;;;;;;;;4994734;28;20229;-75
2022/10/03 06:32:03;;;;;;;8.70;2.67;;;;;;;;;;4994987;28;20283;-75
2022/10/03 06:34:57;;;;;;;6.90;2.20;;;;;;;;;;4981994;28;20236;-76
2022/10/03 06:38:16;;;;;;;13.30;2.20;;;;;;;;;;5003998;28;21252;-75
2022/10/03 06:40:53;;;;;;;16.27;2.93;;;;;;;;;;4964044;28;20225;-76
2022/10/03 06:43:40;;;;;;;9.30;2.13;;;;;;;;;;5009826;28;20275;-75
2022/10/03 06:46:45;;;;;;;8.63;2.60;;;;;;;;;;5011848;28;20314;-76
2022/10/03 06:49:39;;;;;;;6.67;2.27;;;;;;;;;;4992453;28;20234;-76
2022/10/03 06:52:14;;;;;;;6.87;2.17;;;;;;;;;;4969588;28;20516;-74
2022/10/03 06:55:20;;;;;;;6.43;2.40;;;;;;;;;;5001618;28;20323;-73
2022/10/03 06:57:53;;;;;;;8.03;2.13;;;;;;;;;;5003035;28;20217;-75
2022/10/03 07:00:43;;;;;;;10.37;2.37;;;;;;;;;;4985112;28;20748;-75
2022/10/03 07:03:38;;;;;;;6.90;2.33;;;;;;;;;;4984857;28;20232;-75
2022/10/03 07:06:34;;;;;;;11.57;3.03;;;;;;;;;;4998059;28;20240;-75
2022/10/03 07:09:29;;;;;;;14.07;3.00;;;;;;;;;;4998843;28;20228;-76
2022/10/03 07:12:22;;;;;;;10.87;2.70;;;;;;;;;;4949976;28;20225;-75
2022/10/03 07:14:59;;;;;;;5.43;2.37;;;;;;;;;;4999639;28;20283;-76
2022/10/03 07:17:49;;;;;;;7.23;2.47;;;;;;;;;;4983701;28;20239;-75
2022/10/03 07:20:36;;;;;;;9.60;2.40;;;;;;;;;;4986797;28;21576;-75
2022/10/03 07:23:38;;;;;;;7.53;2.40;;;;;;;;;;4982085;28;20227;-75
2022/10/03 07:26:09;;;;;;;8.03;2.60;;;;;;;;;;4955653;28;20274;-76
2022/10/03 07:28:55;;;;;;;8.40;2.37;;;;;;;;;;4981204;28;20229;-75
2022/10/03 07:31:32;;;;;;;10.67;2.27;;;;;;;;;;4980522;28;20359;-75
2022/10/03 07:34:28;;;;;;;9.77;2.50;;;;;;;;;;4980797;28;20240;-75
2022/10/03 07:40:08;;;;;;;8.07;2.37;;;;;;;;;;4998486;28;20228;-76
2022/10/03 07:42:47;;;;;;;7.60;2.30;;;;;;;;;;4979082;28;20227;-78
2022/10/03 07:45:33;;;;;;;6.50;2.20;;;;;;;;;;4952254;28;20228;-76
2022/10/03 07:48:13;;;;;;;10.67;2.20;;;;;;;;;;4985207;28;20237;-75
2022/10/03 07:50:58;;;;;;;7.27;2.37;;;;;;;;;;5001593;28;20371;-76
2022/10/03 07:53:42;;;;;;;6.80;2.00;;;;;;;;;;4999334;28;20603;-74
2022/10/03 07:56:26;;;;;;;10.53;2.20;;;;;;;;;;4981975;28;20236;-75
2022/10/03 07:59:25;;;;;;;10.43;2.50;;;;;;;;;;5001685;28;20769;-75
2022/10/03 08:02:14;;;;;;;7.87;1.90;;;;;;;;;;5000324;28;20315;-74
2022/10/03 08:04:48;;;;;;;8.23;2.53;;;;;;;;;;4983896;28;20668;-74
2022/10/03 08:07:37;;;;;;;6.80;2.13;;;;;;;;;;4950675;28;20229;-73
2022/10/03 08:10:12;;;;;;;7.43;2.50;;;;;;;;;;4984778;28;21558;-74
2022/10/03 08:13:11;;;;;;;6.00;1.77;;;;;;;;;;4949763;28;20229;-74
2022/10/03 08:16:01;;;;;;;3.50;1.60;;;;;;;;;;4981569;28;20231;-73
2022/10/03 08:18:35;;;;;;;8.03;2.10;;;;;;;;;;4979843;28;20243;-75
2022/10/03 08:21:02;;;;;;;7.33;2.03;;;;;;;;;;5001211;28;20227;-74
2022/10/03 08:24:01;;;;;;;5.90;2.00;;;;;;;;;;4966880;28;20216;-73
2022/10/03 08:27:20;;;;;;;6.97;1.90;;;;;;;;;;4983462;28;20339;-75
2022/10/03 08:30:08;;;;;;;7.63;2.43;;;;;;;;;;4954765;28;20817;-76
2022/10/03 08:32:35;;;;;;;9.60;2.37;;;;;;;;;;4980586;28;20225;-74
2022/10/03 08:35:19;;;;;;;8.20;2.33;;;;;;;;;;4984621;28;20271;-77
2022/10/03 08:38:25;;;;;;;5.57;2.20;;;;;;;;;;4984167;28;21075;-75
2022/10/03 08:41:29;;;;;;;9.83;2.57;;;;;;;;;;5000741;28;21062;-75
2022/10/03 08:44:25;;;;;;;7.13;2.10;;;;;;;;;;4984032;28;20319;-76
2022/10/03 08:47:00;;;;;;;6.50;2.17;;;;;;;;;;4983751;28;20248;-76
2022/10/03 08:49:53;;;;;;;6.30;2.20;;;;;;;;;;4983700;28;20236;-76
2022/10/03 08:52:59;;;;;;;5.97;2.07;;;;;;;;;;4963095;28;20232;-76
2022/10/03 08:55:54;;;;;;;4.40;1.97;;;;;;;;;;5000771;28;20247;-76
2022/10/03 08:58:22;;;;;;;11.40;2.23;;;;;;;;;;5000808;28;20236;-75
2022/10/03 09:01:14;;;;;;;4.50;1.87;;;;;;;;;;4983900;28;20232;-74
2022/10/03 09:04:14;;;;;;;5.47;2.20;;;;;;;;;;4954090;28;20236;-75
2022/10/03 09:06:58;;;;;;;6.30;1.77;;;;;;;;;;5000810;28;20228;-75
2022/10/03 09:09:40;;;;;;;7.53;1.90;;;;;;;;;;4983591;28;21441;-74
2022/10/03 09:12:41;;;;;;;4.97;1.87;;;;;;;;;;4983413;28;20233;-75
2022/10/03 09:15:30;;;;;;;5.30;1.63;;;;;;;;;;4969213;28;20346;-75
2022/10/03 09:18:22;;;;;;;5.40;1.83;;;;;;;;;;4969255;28;20740;-74
2022/10/03 09:21:13;;;;;;;4.53;1.70;;;;;;;;;;4967806;28;20278;-76
2022/10/03 09:23:46;;;;;;;4.43;1.57;;;;;;;;;;4971094;28;20722;-75
2022/10/03 09:26:43;;;;;;;4.63;1.63;;;;;;;;;;5000494;28;20224;-74
2022/10/03 09:29:32;;;;;;;3.73;1.50;;;;;;;;;;4986361;28;20225;-74
2022/10/03 09:32:16;;;;;;;3.43;1.40;;;;;;;;;;5001030;28;20270;-75
2022/10/03 09:35:11;;;;;;;3.03;1.37;;;;;;;;;;5001549;28;20224;-75
2022/10/03 09:38:00;;;;;;;4.70;1.60;;;;;;;;;;4987153;28;20244;-73
2022/10/03 09:41:08;;;;;;;3.20;1.57;;;;;;;;;;4938176;28;20229;-75
2022/10/03 09:43:52;;;;;;;5.40;1.60;;;;;;;;;;4988661;28;20243;-75
2022/10/03 09:46:23;;;;;;;8.30;2.00;;;;;;;;;;4987872;28;20732;-74
2022/10/03 09:49:50;;;;;;;6.80;2.13;;;;;;;;;;4987947;28;20749;-74
2022/10/03 09:52:25;;;;;;;5.30;1.80;;;;;;;;;;4882759;29;20247;-75
2022/10/03 09:55:11;;;;;;;6.25;1.83;;;;;;;;;;4954828;28;20328;-74
2022/10/03 09:57:55;;;;;;;5.37;1.50;;;;;;;;;;5004291;28;20230;-74
2022/10/03 10:01:06;;;;;;;8.85;1.83;;;;;;;;;;4983016;28;20224;-74
2022/10/03 10:03:49;;;;;;;3.80;1.87;;;;;;;;;;4970217;28;20235;-75
2022/10/03 10:06:41;;;;;;;3.97;1.27;;;;;;;;;;4986420;28;20228;-75
2022/10/03 10:09:32;;;;;;;7.03;1.87;;;;;;;;;;5004507;28;20229;-74
2022/10/03 10:12:20;;;;;;;7.30;2.03;;;;;;;;;;4989361;28;20231;-75
2022/10/03 10:15:12;;;;;;;3.80;1.60;;;;;;;;;;4990314;28;20229;-74
2022/10/03 10:18:15;;;;;;;5.00;1.87;;;;;;;;;;4970333;28;20227;-75
2022/10/03 10:21:05;;;;;;;5.60;1.80;;;;;;;;;;4986277;28;20228;-75
2022/10/03 10:24:08;;;;;;;4.32;1.50;;;;;;;;;;4985094;28;20328;-75
2022/10/03 10:27:01;;;;;;;8.68;2.00;;;;;;;;;;4985007;28;20248;-73
2022/10/03 10:29:49;;;;;;;5.40;1.90;;;;;;;;;;5003508;28;21359;-72
2022/10/03 10:32:35;;;;;;;4.80;1.80;;;;;;;;;;4979886;28;20232;-75
2022/10/03 10:35:39;;;;;;;5.37;1.80;;;;;;;;;;5002351;28;20232;-75
2022/10/03 10:38:42;;;;;;;6.80;2.00;;;;;;;;;;4924417;29;20249;-75
2022/10/03 10:41:38;;;;;;;6.47;1.92;;;;;;;;;;4985703;28;20285;-74
2022/10/03 10:44:22;;;;;;;4.40;1.58;;;;;;;;;;4984292;28;20276;-74
2022/10/03 10:47:11;;;;;;;5.60;2.10;;;;;;;;;;4985793;28;20217;-75
2022/10/03 10:50:01;;;;;;;12.10;2.05;;;;;;;;;;4987573;28;20479;-81
2022/10/03 10:52:26;;;;;;;5.80;1.50;;;;;;;;;;5002812;28;20225;-76
2022/10/03 10:55:29;;;;;;;6.63;2.67;;;;;;;;;;5003824;28;20234;-76
2022/10/03 10:58:06;;;;;;;5.40;2.08;;;;;;;;;;5004233;28;21003;-76
2022/10/03 11:00:59;;;;;;;5.03;1.70;;;;;;;;;;4984636;28;20220;-75
2022/10/03 11:03:27;;;;;;;2.97;1.60;;;;;;;;;;4982528;28;20617;-74
2022/10/03 11:06:17;;;;;;;7.10;1.90;;;;;;;;;;5003366;28;20292;-73
2022/10/03 11:08:42;;;;;;;2.85;1.23;;;;;;;;;;4999967;28;20237;-74
2022/10/03 11:11:29;;;;;;;3.83;1.58;;;;;;;;;;5002322;28;20247;-73
2022/10/03 11:14:12;;;;;;;4.00;1.65;;;;;;;;;;4981939;28;20310;-75
2022/10/03 11:16:53;;;;;;;2.65;1.42;;;;;;;;;;5002510;28;20308;-74
2022/10/03 11:19:40;;;;;;;7.28;1.88;;;;;;;;;;4967613;28;20521;-75
2022/10/03 11:22:27;;;;;;;3.13;1.75;;;;;;;;;;5002329;28;20304;-75
2022/10/03 11:25:20;;;;;;;6.45;2.33;;;;;;;;;;4997574;28;20220;-76
2022/10/03 11:28:15;;;;;;;5.32;1.98;;;;;;;;;;4963615;28;20232;-79
2022/10/03 11:30:59;;;;;;;6.35;1.40;;;;;;;;;;5003302;28;20248;-75
2022/10/03 11:33:43;;;;;;;4.85;1.90;;;;;;;;;;5000006;28;20866;-74
2022/10/03 11:36:18;;;;;;;4.63;1.58;;;;;;;;;;4984581;28;20221;-75
2022/10/03 11:38:52;;;;;;;3.15;1.40;;;;;;;;;;4981072;28;20221;-75
2022/10/03 11:41:46;;;;;;;4.65;1.67;;;;;;;;;;4990661;28;20661;-75
2022/10/03 11:44:35;;;;;;;5.75;1.90;;;;;;;;;;4968714;28;20589;-75
2022/10/03 11:47:20;;;;;;;5.20;1.75;;;;;;;;;;4986535;28;20332;-75
2022/10/03 11:50:06;;;;;;;6.05;1.98;;;;;;;;;;5001944;28;20303;-76
2022/10/03 11:53:02;;;;;;;4.35;1.35;;;;;;;;;;5002287;28;20228;-75
2022/10/03 11:55:32;;;;;;;4.23;2.37;;;;;;;;;;4984692;28;20222;-74
2022/10/03 11:58:17;;;;;;;7.60;2.10;;;;;;;;;;4996266;28;20275;-73
2022/10/03 12:00:45;;;;;;;7.00;2.40;;;;;;;;;;5001131;28;20231;-75
2022/10/03 12:03:22;;;;;;;6.13;2.57;;;;;;;;;;4984924;28;20232;-76
2022/10/03 12:09:06;;;;;;;7.07;2.20;;;;;;;;;;4983760;28;20240;-76
2022/10/03 12:11:39;;;;;;;5.07;2.10;;;;;;;;;;4968282;28;20228;-76
2022/10/03 12:14:16;;;;;;;7.43;1.60;;;;;;;;;;4979081;28;20225;-76
2022/10/03 12:17:01;;;;;;;5.47;1.40;;;;;;;;;;4988474;28;20300;-76
2022/10/03 12:19:32;;;;;;;5.90;1.40;;;;;;;;;;4956975;28;20251;-76
2022/10/03 12:22:01;;;;;;;4.10;1.60;;;;;;;;;;5000914;28;20299;-77
2022/10/03 12:24:37;;;;;;;4.78;1.23;;;;;;;;;;4983125;28;20339;-78
2022/10/03 12:27:12;;;;;;;2.47;1.40;;;;;;;;;;4963731;28;20221;-74
2022/10/03 12:29:44;;;;;;;3.50;1.40;;;;;;;;;;4967708;28;20947;-77
2022/10/03 12:32:38;;;;;;;3.25;1.20;;;;;;;;;;4993111;23;20304;-84
2022/10/03 12:35:07;;;;;;;2.67;1.17;;;;;;;;;;4985176;28;20710;-85
2022/10/03 12:37:43;;;;;;;4.13;1.45;;;;;;;;;;4970552;28;20297;-78
2022/10/03 12:40:27;;;;;;;4.97;1.40;;;;;;;;;;4982651;28;20229;-81
2022/10/03 12:43:00;;;;;;;4.70;1.60;;;;;;;;;;4971693;28;20312;-80
2022/10/03 12:45:31;;;;;;;2.90;1.02;;;;;;;;;;4967132;28;20280;-82
2022/10/03 12:48:03;;;;;;;5.25;1.13;;;;;;;;;;4991217;28;20698;-83
2022/10/03 12:50:36;;;;;;;2.35;1.33;;;;;;;;;;4982334;28;21606;-82
2022/10/03 12:53:10;;;;;;;6.07;1.77;;;;;;;;;;4956226;28;20226;-83
2022/10/03 12:55:38;;;;;;;3.93;1.40;;;;;;;;;;4983840;28;20698;-85
2022/10/03 12:58:21;;;;;;;3.83;1.70;;;;;;;;;;4986381;28;20301;-82
2022/10/03 13:01:24;;;;;;;6.80;2.10;;;;;;;;;;4970593;28;20346;-82
2022/10/03 13:03:53;;;;;;;8.53;2.20;;;;;;;;;;4984080;28;20228;-86
2022/10/03 13:06:45;;;;;;;6.17;1.83;;;;;;;;;;4968400;28;20226;-82
2022/10/03 13:09:21;;;;;;;5.10;1.73;;;;;;;;;;4973297;28;20637;-83
2022/10/03 13:12:15;;;;;;;7.13;2.10;;;;;;;;;;4987734;28;20232;-84
2022/10/03 13:15:18;;;;;;;8.05;2.17;;;;;;;;;;4986612;28;20316;-83
2022/10/03 13:18:04;;;;;;;5.03;1.40;;;;;;;;;;4988812;28;22016;-83
2022/10/03 13:20:33;;;;;;;7.47;2.00;;;;;;;;;;4987986;28;20217;-84
2022/10/03 13:23:34;;;;;;;4.93;1.52;;;;;;;;;;4981483;28;20210;-84
2022/10/03 13:26:20;;;;;;;3.77;1.53;;;;;;;;;;4959862;28;20217;-85
2022/10/03 13:29:22;;;;;;;3.77;1.43;;;;;;;;;;4973764;28;20248;-84
2022/10/03 13:32:11;;;;;;;4.23;1.60;;;;;;;;;;4973783;28;20253;-85
2022/10/03 13:34:55;;;;;;;8.40;1.97;;;;;;;;;;4945158;28;20222;-85
2022/10/03 13:37:56;;;;;;;6.67;2.60;;;;;;;;;;4973915;28;20255;-85
2022/10/03 13:40:24;;;;;;;6.73;2.00;;;;;;;;;;4943076;28;20232;-84
2022/10/03 13:42:55;;;;;;;6.50;1.70;;;;;;;;;;4975533;28;20640;-85
2022/10/03 13:45:26;;;;;;;4.70;1.70;;;;;;;;;;4966832;28;20225;-85
2022/10/03 13:47:54;;;;;;;5.40;2.10;;;;;;;;;;4973696;28;20274;-85
2022/10/03 13:50:51;;;;;;;5.17;1.80;;;;;;;;;;4974102;28;20222;-85
2022/10/03 13:53:51;;;;;;;8.87;2.00;;;;;;;;;;4985382;28;20245;-84
2022/10/03 13:56:24;;;;;;;9.17;1.70;;;;;;;;;;4987509;28;20225;-85
2022/10/03 13:58:50;;;;;;;10.83;1.97;;;;;;;;;;4990001;28;20221;-86
2022/10/03 14:01:33;;;;;;;5.03;1.80;;;;;;;;;;4990391;28;20618;-86
2022/10/03 14:04:33;;;;;;;11.80;1.70;;;;;;;;;;4973759;28;20226;-86
2022/10/03 14:07:24;;;;;;;4.68;1.50;;;;;;;;;;4972720;28;20238;-84
2022/10/03 14:10:09;;;;;;;5.10;1.53;;;;;;;;;;4955127;28;20221;-86
2022/10/03 14:12:44;;;;;;;5.00;1.73;;;;;;;;;;4992465;28;20259;-85
2022/10/03 14:15:20;;;;;;;4.03;1.60;;;;;;;;;;5006827;28;20252;-84
2022/10/03 14:18:10;;;;;;;4.77;1.60;;;;;;;;;;4985450;28;20719;-85
2022/10/03 14:21:24;;;;;;;5.70;1.90;;;;;;;;;;4993029;28;20447;-85
2022/10/03 14:23:58;;;;;;;4.33;1.70;;;;;;;;;;4984110;28;20230;-84
2022/10/03 14:26:38;;;;;;;4.77;1.30;;;;;;;;;;4986964;28;20218;-83
2022/10/03 14:29:16;;;;;;;8.23;1.80;;;;;;;;;;4960302;28;20306;-83
2022/10/03 14:31:45;;;;;;;6.47;1.90;;;;;;;;;;4967475;28;20308;-85
2022/10/03 14:34:23;;;;;;;2.87;1.40;;;;;;;;;;4965346;28;20221;-86
2022/10/03 14:36:53;;;;;;;4.88;1.52;;;;;;;;;;4962470;28;20229;-82
2022/10/03 14:39:31;;;;;;;3.47;1.27;;;;;;;;;;4997684;28;20315;-85
2022/10/03 14:42:21;;;;;;;3.80;1.30;;;;;;;;;;4951112;28;20236;-83
2022/10/03 14:45:34;;;;;;;4.88;1.63;;;;;;;;;;4999415;28;20283;-84
2022/10/03 14:48:11;;;;;;;5.50;1.92;;;;;;;;;;4965184;28;21162;-82
2022/10/03 14:50:37;;;;;;;5.28;1.75;;;;;;;;;;4981297;28;20221;-83
2022/10/03 14:53:14;;;;;;;9.43;1.85;;;;;;;;;;4980277;28;20730;-83
2022/10/03 14:56:10;;;;;;;5.40;2.13;;;;;;;;;;4983670;28;20236;-83
2022/10/03 14:58:51;;;;;;;4.85;3.30;;;;;;;;;;4947630;28;20264;-81
2022/10/03 15:01:23;;;;;;;253.98;230.75;;;;;;;;;;4968728;28;20233;-82
2022/10/03 15:04:29;;;;;;;94.63;85.85;;;;;;;;;;4984013;28;20237;-85
2022/10/03 15:06:59;;;;;;;29.25;26.17;;;;;;;;;;4984636;28;20222;-84
2022/10/03 15:09:37;;;;;;;14.07;12.70;;;;;;;;;;4952149;28;21263;-84
2022/10/03 15:12:23;;;;;;;5.25;2.35;;;;;;;;;;4983424;28;20260;-83
2022/10/03 15:15:07;;;;;;;2.53;1.05;;;;;;;;;;4977692;28;20713;-83
2022/10/03 15:17:36;;;;;;;4.47;2.67;;;;;;;;;;4983170;28;20233;-83
2022/10/03 15:20:09;;;;;;;4.72;2.10;;;;;;;;;;4968458;28;20237;-85
2022/10/03 15:22:40;;;;;;;4.75;1.90;;;;;;;;;;4954564;28;20251;-83
2022/10/03 15:25:37;;;;;;;7.13;1.92;;;;;;;;;;4971014;28;20300;-84
2022/10/03 15:28:19;;;;;;;3.63;1.77;;;;;;;;;;4979828;28;20719;-83
2022/10/03 15:30:45;;;;;;;6.30;1.63;;;;;;;;;;4961377;28;20251;-82
2022/10/03 15:33:28;;;;;;;3.00;1.38;;;;;;;;;;4981854;28;20226;-82
2022/10/03 15:35:54;;;;;;;5.87;1.73;;;;;;;;;;4983427;28;20217;-82
2022/10/03 15:38:26;;;;;;;2.78;1.30;;;;;;;;;;4966273;28;20714;-84
2022/10/03 15:41:10;;;;;;;3.83;1.45;;;;;;;;;;4967293;28;20217;-83
2022/10/03 15:44:02;;;;;;;7.83;1.40;;;;;;;;;;5001086;28;20218;-85
2022/10/03 15:46:43;;;;;;;5.80;1.90;;;;;;;;;;4960489;28;20313;-82
2022/10/03 15:49:29;;;;;;;6.88;2.30;;;;;;;;;;4986863;28;20277;-80
2022/10/03 15:51:55;;;;;;;10.30;1.58;;;;;;;;;;4982127;28;20265;-83
2022/10/03 15:54:23;;;;;;;6.93;1.70;;;;;;;;;;4969486;28;20221;-81
2022/10/03 15:56:55;;;;;;;5.33;1.50;;;;;;;;;;4983044;28;20273;-80
2022/10/03 15:59:31;;;;;;;4.33;1.67;;;;;;;;;;4961826;28;20229;-82
2022/10/03 16:01:59;;;;;;;4.80;1.70;;;;;;;;;;4960050;28;20279;-82
2022/10/03 16:04:32;;;;;;;3.58;1.52;;;;;;;;;;4972890;28;20277;-81
2022/10/03 16:07:08;;;;;;;3.80;1.80;;;;;;;;;;4967572;28;20249;-86
2022/10/03 16:10:09;;;;;;;4.45;1.83;;;;;;;;;;4968613;28;20244;-82
2022/10/03 16:12:59;;;;;;;6.65;1.77;;;;;;;;;;4948530;28;20256;-82
2022/10/03 16:15:36;;;;;;;4.60;1.75;;;;;;;;;;4984834;28;20252;-84
2022/10/03 16:18:11;;;;;;;8.57;1.70;;;;;;;;;;4967334;28;20604;-85
2022/10/03 16:20:40;;;;;;;4.93;2.00;;;;;;;;;;4968220;28;20316;-84
2022/10/03 16:23:16;;;;;;;4.20;1.80;;;;;;;;;;4972556;28;20280;-83
2022/10/03 16:25:54;;;;;;;6.63;1.93;;;;;;;;;;4966391;28;20233;-84
2022/10/03 16:28:46;;;;;;;4.30;2.00;;;;;;;;;;4966623;28;20245;-82
2022/10/03 16:31:17;;;;;;;3.83;1.90;;;;;;;;;;4939248;28;20217;-81